PWSweather.com
Personal Weather Stations
Station Observations
LUKAS
Viterbo, MartaIT 01010

ViterboMartaIT 01010

Lat: 42.5370989, Lon: 11.9204865

Elevation: 896

Station Type: La Crosse WS 2305

http://www.meteomarta.altervista.org/

Latest ConditionsUpdated 8:00:01 AM GMT+01:01 Tuesday, Jun 27, 2017
Currently Today's Max Today's Min Today's Average
Temperature 79.8°F26.6°C 79.8°F26.6°C 70.3°F21.3°C 72.6°F22.6°C
Dew Point 62.2°F16.8°C 67.7°F19.8°C 62.2°F16.8°C 65.9°F18.8°C
Winds 8.0 mph S12.9 kmh S 8.0 mph WSW12.9 kmh WSW - 2.5 mph 4.0 kmh
Wind Gusts 17.0 mph27.4 kmh 17.0 mph27.4 kmh - -
Humidity 55% 87% 55% 80%
Pressure 29.79 in1008.8 mb 29.86 in1011.2 mb 29.79 in1008.8 mb -
Hour Temp Dew Point Humidity Winds Wind Gusts Pressure Precip Precip Rate Daily Precip Total
08:00 AM 79.8°F26.6°C 62.2°F16.8°C 55% 8.0 mph S12.9 kmh S 17.0 mph27.4 kmh 29.79 in1008.8 mb - 0.00 in0.0 mm 0.00 in0.0 mm
07:50 AM 79.2°F26.2°C 62.6°F17.0°C 57% 7.0 mph SSE11.3 kmh SSE 13.0 mph20.9 kmh 29.80 in1009.1 mb - 0.00 in0.0 mm 0.00 in0.0 mm
07:40 AM 78.4°F25.8°C 63.9°F17.7°C 61% 5.0 mph S8.0 kmh S 13.0 mph20.9 kmh 29.80 in1009.1 mb - 0.00 in0.0 mm 0.00 in0.0 mm
07:30 AM 77.5°F25.3°C 63.5°F17.5°C 62% 7.0 mph SE11.3 kmh SE 10.0 mph16.1 kmh 29.80 in1009.1 mb - 0.00 in0.0 mm 0.00 in0.0 mm
07:20 AM 76.8°F24.9°C 64.2°F17.9°C 65% 7.0 mph S11.3 kmh S 13.0 mph20.9 kmh 29.81 in1009.5 mb - 0.00 in0.0 mm 0.00 in0.0 mm
07:10 AM 76.2°F24.6°C 65.3°F18.5°C 69% 6.0 mph SE9.7 kmh SE 12.0 mph19.3 kmh 29.81 in1009.5 mb - 0.00 in0.0 mm 0.00 in0.0 mm
07:00 AM 75.1°F23.9°C 65.4°F18.6°C 72% 7.0 mph S11.3 kmh S 8.0 mph12.9 kmh 29.81 in1009.5 mb - 0.00 in0.0 mm 0.00 in0.0 mm
06:50 AM 74.4°F23.6°C 66.3°F19.1°C 76% 7.0 mph S11.3 kmh S 9.0 mph14.5 kmh 29.82 in1009.8 mb - 0.00 in0.0 mm 0.00 in0.0 mm
06:40 AM 73.6°F23.1°C 67.4°F19.7°C 81% 1.0 mph S1.6 kmh S 5.0 mph8.0 kmh 29.82 in1009.8 mb - 0.00 in0.0 mm 0.00 in0.0 mm
06:30 AM 72.9°F22.7°C 67.7°F19.8°C 84% 3.0 mph S4.8 kmh S 5.0 mph8.0 kmh 29.82 in1009.8 mb - 0.00 in0.0 mm 0.00 in0.0 mm
06:20 AM 72.5°F22.5°C 67.4°F19.7°C 84% 3.0 mph SSW4.8 kmh SSW 5.0 mph8.0 kmh 29.82 in1009.8 mb - 0.00 in0.0 mm 0.00 in0.0 mm
06:10 AM 72.1°F22.3°C 67.0°F19.4°C 84% 1.0 mph SSW1.6 kmh SSW 5.0 mph8.0 kmh 29.82 in1009.8 mb - 0.00 in0.0 mm 0.00 in0.0 mm
06:00 AM 72.0°F22.2°C 66.9°F19.4°C 84% 6.0 mph S9.7 kmh S 10.0 mph16.1 kmh 29.82 in1009.8 mb - 0.00 in0.0 mm 0.00 in0.0 mm
05:50 AM 71.7°F22.1°C 66.6°F19.2°C 84% 6.0 mph SSW9.7 kmh SSW 7.0 mph11.3 kmh 29.82 in1009.8 mb - 0.00 in0.0 mm 0.00 in0.0 mm
05:40 AM 71.2°F21.8°C 66.5°F19.2°C 85% 2.0 mph SSW3.2 kmh SSW 6.0 mph9.7 kmh 29.82 in1009.8 mb - 0.00 in0.0 mm 0.00 in0.0 mm
05:30 AM 71.0°F21.7°C 67.0°F19.4°C 87% 1.0 mph S1.6 kmh S 3.0 mph4.8 kmh 29.82 in1009.8 mb - 0.00 in0.0 mm 0.00 in0.0 mm
05:20 AM 70.5°F21.4°C 66.5°F19.2°C 87% 2.0 mph S3.2 kmh S 3.0 mph4.8 kmh 29.82 in1009.8 mb - 0.00 in0.0 mm 0.00 in0.0 mm
05:10 AM 70.3°F21.3°C 66.0°F18.9°C 86% Calm Calm 3.0 mph4.8 kmh 29.82 in1009.8 mb - 0.00 in0.0 mm 0.00 in0.0 mm
05:00 AM 70.4°F21.3°C 66.0°F18.9°C 86% Calm Calm 1.0 mph1.6 kmh 29.82 in1009.8 mb - 0.00 in0.0 mm 0.00 in0.0 mm
04:50 AM 70.5°F21.4°C 66.1°F18.9°C 86% 1.0 mph SW1.6 kmh SW 3.0 mph4.8 kmh 29.82 in1009.8 mb - 0.00 in0.0 mm 0.00 in0.0 mm
04:40 AM 70.7°F21.5°C 66.0°F18.9°C 85% Calm Calm -- 29.81 in1009.5 mb - 0.00 in0.0 mm 0.00 in0.0 mm
04:30 AM 70.7°F21.5°C 66.0°F18.9°C 85% Calm Calm 1.0 mph1.6 kmh 29.82 in1009.8 mb - 0.00 in0.0 mm 0.00 in0.0 mm
04:20 AM 70.7°F21.5°C 66.0°F18.9°C 85% Calm Calm -- 29.81 in1009.5 mb - 0.00 in0.0 mm 0.00 in0.0 mm
04:10 AM 70.5°F21.4°C 65.4°F18.6°C 84% Calm Calm -- 29.81 in1009.5 mb - 0.00 in0.0 mm 0.00 in0.0 mm
04:00 AM 70.5°F21.4°C 65.4°F18.6°C 84% Calm Calm -- 29.81 in1009.5 mb - 0.00 in0.0 mm 0.00 in0.0 mm
03:50 AM 70.5°F21.4°C 65.1°F18.4°C 83% Calm Calm -- 29.81 in1009.5 mb - 0.00 in0.0 mm 0.00 in0.0 mm
03:40 AM 71.0°F21.7°C 65.5°F18.6°C 83% Calm Calm -- 29.81 in1009.5 mb - 0.00 in0.0 mm 0.00 in0.0 mm
03:30 AM 71.4°F21.9°C 66.0°F18.9°C 83% Calm Calm 2.0 mph3.2 kmh 29.82 in1009.8 mb - 0.00 in0.0 mm 0.00 in0.0 mm
03:20 AM 71.4°F21.9°C 66.0°F18.9°C 83% 1.0 mph W1.6 kmh W 2.0 mph3.2 kmh 29.82 in1009.8 mb - 0.00 in0.0 mm 0.00 in0.0 mm
03:10 AM 71.4°F21.9°C 66.0°F18.9°C 83% 1.0 mph W1.6 kmh W 3.0 mph4.8 kmh 29.82 in1009.8 mb - 0.00 in0.0 mm 0.00 in0.0 mm
03:00 AM 71.4°F21.9°C 66.0°F18.9°C 83% 3.0 mph WSW4.8 kmh WSW 3.0 mph4.8 kmh 29.81 in1009.5 mb - 0.00 in0.0 mm 0.00 in0.0 mm
02:50 AM 71.5°F21.9°C 66.0°F18.9°C 83% Calm Calm -- 29.81 in1009.5 mb - 0.00 in0.0 mm 0.00 in0.0 mm
02:40 AM 71.4°F21.9°C 65.9°F18.8°C 83% 1.0 mph WSW1.6 kmh WSW 1.0 mph1.6 kmh 29.81 in1009.5 mb - 0.00 in0.0 mm 0.00 in0.0 mm
02:30 AM 71.0°F21.7°C 65.6°F18.7°C 83% 1.0 mph WSW1.6 kmh WSW 2.0 mph3.2 kmh 29.83 in1010.2 mb - 0.00 in0.0 mm 0.00 in0.0 mm
02:20 AM 71.2°F21.8°C 65.8°F18.8°C 83% 1.0 mph WSW1.6 kmh WSW 2.0 mph3.2 kmh 29.82 in1009.8 mb - 0.00 in0.0 mm 0.00 in0.0 mm
02:10 AM 71.4°F21.9°C 65.6°F18.7°C 82% 5.0 mph WSW8.0 kmh WSW 6.0 mph9.7 kmh 29.82 in1009.8 mb - 0.00 in0.0 mm 0.00 in0.0 mm
02:00 AM 72.3°F22.4°C 66.5°F19.2°C 82% 6.0 mph SE9.7 kmh SE 9.0 mph14.5 kmh 29.82 in1009.8 mb - 0.00 in0.0 mm 0.00 in0.0 mm
01:50 AM 72.3°F22.4°C 65.8°F18.8°C 80% Calm Calm -- 29.81 in1009.5 mb - 0.00 in0.0 mm 0.00 in0.0 mm
01:40 AM 72.3°F22.4°C 65.8°F18.8°C 80% Calm Calm -- 29.81 in1009.5 mb - 0.00 in0.0 mm 0.00 in0.0 mm
01:30 AM 72.5°F22.5°C 65.6°F18.7°C 79% 2.0 mph SE3.2 kmh SE 2.0 mph3.2 kmh 29.82 in1009.8 mb - 0.00 in0.0 mm 0.00 in0.0 mm
01:20 AM 72.7°F22.6°C 65.8°F18.8°C 79% 1.0 mph SE1.6 kmh SE 2.0 mph3.2 kmh 29.83 in1010.2 mb - 0.00 in0.0 mm 0.00 in0.0 mm
01:10 AM 73.0°F22.8°C 65.8°F18.8°C 78% 1.0 mph SSE1.6 kmh SSE 2.0 mph3.2 kmh 29.84 in1010.5 mb - 0.00 in0.0 mm 0.00 in0.0 mm
01:00 AM 73.3°F22.9°C 66.0°F18.9°C 78% 2.0 mph SSE3.2 kmh SSE 2.0 mph3.2 kmh 29.85 in1010.8 mb - 0.00 in0.0 mm 0.00 in0.0 mm
12:50 AM 73.9°F23.3°C 66.3°F19.1°C 77% 1.0 mph SSE1.6 kmh SSE 1.0 mph1.6 kmh 29.85 in1010.8 mb - 0.00 in0.0 mm 0.00 in0.0 mm
12:40 AM 73.9°F23.3°C 66.3°F19.1°C 77% Calm Calm 2.0 mph3.2 kmh 29.86 in1011.2 mb - 0.00 in0.0 mm 0.00 in0.0 mm
12:30 AM 72.5°F22.5°C 66.0°F18.9°C 80% 5.0 mph S8.0 kmh S 7.0 mph11.3 kmh 29.86 in1011.2 mb - 0.00 in0.0 mm 0.00 in0.0 mm
12:20 AM 72.0°F22.2°C 66.9°F19.4°C 84% 8.0 mph WSW12.9 kmh WSW 10.0 mph16.1 kmh 29.86 in1011.2 mb - 0.00 in0.0 mm 0.00 in0.0 mm
12:10 AM 71.8°F22.1°C 67.0°F19.4°C 85% 1.0 mph WSW1.6 kmh WSW 1.0 mph1.6 kmh 29.86 in1011.2 mb - 0.00 in0.0 mm 0.00 in0.0 mm
12:00 AM 71.8°F22.1°C 67.0°F19.4°C 85% 1.0 mph SW1.6 kmh SW 2.0 mph3.2 kmh 29.84 in1010.5 mb - 0.00 in0.0 mm 0.00 in0.0 mm